首页
METAR-TAF:

METAR-TAF

机场 :

杰克逊维尔国际机场

杰克逊维尔, 佛罗里达州, 美国

纬度: 30-29-40N, 经度: 081-41-36W, 海拔: 9米

当前天气观测

该预报发布于21分钟前的23:24 UTC
风速4节,风向
温度 24°C
湿度 94%
气压 1017 hPa
能見度: 16.1公里
少量云层高于2500英尺
多云层高于10000英尺
多云层高于25000英尺

METAR: KJAX 152324Z 17004KT 10SM FEW025 BKN100 BKN250 24/23 A3003 RMK AO2 TSE23 T02440228

时间: 19:45 (23:45 UTC)

预报

该预报发布于21分钟前的23:24 UTC
预报有效从16日的 00点(UTC)到 16日的 24点(UTC)
风速4节,风向西
能見度: 10公里
散云层高于2500英尺, 积雨云.
多云层高于10000英尺
阴天层高于25000英尺
附近有雷暴
从 16日的 0100点(UTC)
风速4节,风向西转西南
能見度: 10公里
散云层高于4500英尺
多云层高于10000英尺
阴天层高于25000英尺
从 16日的 0200点(UTC)
风速3节,风向
能見度: 10公里
散云层高于5000英尺
散云层高于12000英尺
多云层高于25000英尺
从 16日的 0700点(UTC)
风速3节,风向南转西南
能見度: 10公里
少量云层高于5000英尺
散云层高于12000英尺
散云层高于25000英尺
从 16日的 1300点(UTC)
风速6节,风向西转西南
能見度: 10公里
少量云层高于2500英尺
少量云层高于25000英尺
从 16日的 1900点(UTC)
风速6节,风向西南
能見度: 10公里
少量云层高于2500英尺
多云层高于4000英尺, 积雨云.
阴天层高于8000英尺
附近有雷暴
短暂存在
从 16日的 19点(UTC)到 16日的 23点(UTC)
风速25节,风向多变,有时为37节阵风
能見度: 4.8公里
少量云层高于800英尺
多云层高于2500英尺, 积雨云.
阴天层高于4000英尺
雷暴, 雨,

TAF: KJAX 152324Z 1600/1624 28004KT P6SM VCTS SCT025CB BKN100 OVC250 FM160100 24004KT P6SM SCT045 BKN100 OVC250 FM160200 19003KT P6SM SCT050 SCT120 BKN250 FM160700 21003KT P6SM FEW050 SCT120 SCT250 FM161300 24006KT P6SM FEW025 FEW250 FM161900 22006KT P6SM VCTS FEW025 BKN040CB OVC080 TEMPO 1619/1623 VRB25G37KT 3SM TSRA FEW008 BKN025CB OVC040

超过4000个机场的气象观测和天气预报(METAR&TAF报告)。

可查询的气象台以黄色和红色小点在地图上表示。

将鼠标移到小点上方,可查看气象台名称。

然后点击查看天气观测和预报。

如需切换地图:点击带黑十字的绿色按钮放大地图;点击带横线的绿色按钮缩小地图;或者点击绿色箭头查看邻近地区的地图。


METAR-TAF: